createdAt,value
2018-08-11T00:00:40.688Z,0.00
2018-08-11T00:01:40.691Z,0.00
2018-08-11T00:02:40.620Z,0.00
2018-08-11T00:03:40.597Z,0.00
2018-08-11T00:04:40.567Z,0.00
2018-08-11T00:05:40.540Z,0.00
2018-08-11T00:06:40.525Z,0.00
2018-08-11T00:07:40.506Z,0.00
2018-08-11T00:08:40.479Z,0.00
2018-08-11T00:09:40.450Z,0.00
2018-08-11T00:10:40.419Z,0.00
2018-08-11T00:11:40.388Z,0.00
2018-08-11T00:12:40.435Z,0.00
2018-08-11T00:13:40.340Z,0.00
2018-08-11T00:14:40.366Z,0.00
2018-08-11T00:15:40.334Z,0.00
2018-08-11T00:16:40.258Z,0.00
2018-08-11T00:17:40.237Z,0.00
2018-08-11T00:18:40.238Z,0.00
2018-08-11T00:19:40.190Z,0.00
2018-08-11T00:20:40.233Z,0.00
2018-08-11T00:21:40.136Z,0.00
2018-08-11T00:22:40.100Z,0.00
2018-08-11T00:23:40.087Z,0.00
2018-08-11T00:24:40.074Z,0.00
2018-08-11T00:25:40.031Z,0.00
2018-08-11T00:26:40.000Z,0.00
2018-08-11T00:27:39.992Z,0.00
2018-08-11T00:28:39.951Z,0.00
2018-08-11T00:29:39.926Z,0.00
2018-08-11T00:30:39.896Z,0.00
2018-08-11T00:31:39.870Z,0.00
2018-08-11T00:32:39.848Z,0.00
2018-08-11T00:33:39.826Z,0.00
2018-08-11T00:34:39.792Z,0.00
2018-08-11T00:35:39.767Z,0.00
2018-08-11T00:36:39.729Z,0.00
2018-08-11T00:37:39.711Z,0.00
2018-08-11T00:38:39.704Z,0.00
2018-08-11T00:39:39.663Z,0.00
2018-08-11T00:40:39.643Z,0.00
2018-08-11T00:41:39.622Z,0.00
2018-08-11T00:42:39.577Z,0.00
2018-08-11T00:43:39.545Z,0.00
2018-08-11T00:44:39.548Z,0.00
2018-08-11T00:45:39.502Z,0.00
2018-08-11T00:46:39.472Z,0.00
2018-08-11T00:47:57.186Z,0.00
2018-08-11T00:49:52.412Z,0.00
2018-08-11T00:50:52.411Z,0.00
2018-08-11T00:51:52.397Z,0.00
2018-08-11T00:52:52.253Z,0.00
2018-08-11T00:53:52.343Z,0.00
2018-08-11T00:54:52.198Z,0.00
2018-08-11T00:55:52.177Z,0.00
2018-08-11T00:56:52.146Z,0.00
2018-08-11T00:57:52.111Z,0.00
2018-08-11T00:58:52.083Z,0.00
2018-08-11T00:59:52.060Z,0.00
2018-08-11T01:00:52.035Z,0.00
2018-08-11T01:01:51.993Z,0.00
2018-08-11T01:02:52.000Z,0.00
2018-08-11T01:03:51.964Z,0.00
2018-08-11T01:04:51.917Z,0.00
2018-08-11T01:05:51.903Z,0.00
2018-08-11T01:06:51.908Z,0.00
2018-08-11T01:07:51.855Z,0.00
2018-08-11T01:08:51.813Z,0.00
2018-08-11T01:09:51.799Z,0.00
2018-08-11T01:10:51.780Z,0.00
2018-08-11T01:11:51.733Z,0.00
2018-08-11T01:12:51.707Z,0.00
2018-08-11T01:13:51.701Z,0.00
2018-08-11T01:14:51.648Z,0.00
2018-08-11T01:15:51.613Z,0.00
2018-08-11T01:16:51.600Z,0.00
2018-08-11T01:17:51.573Z,0.00
2018-08-11T01:18:51.533Z,0.00
2018-08-11T01:19:51.508Z,0.00
2018-08-11T01:20:51.494Z,0.00
2018-08-11T01:21:51.442Z,0.00
2018-08-11T01:22:51.522Z,0.00
2018-08-11T01:23:51.469Z,0.00
2018-08-11T01:24:51.375Z,0.00
2018-08-11T01:25:51.338Z,0.00
2018-08-11T01:26:51.313Z,0.00
2018-08-11T01:27:51.276Z,0.00
2018-08-11T01:28:51.255Z,0.00
2018-08-11T01:29:51.229Z,0.00
2018-08-11T01:30:51.253Z,0.00
2018-08-11T01:31:51.189Z,0.00
2018-08-11T01:32:51.134Z,0.00
2018-08-11T01:33:51.147Z,0.00
2018-08-11T01:34:51.082Z,0.00
2018-08-11T01:35:51.051Z,0.00
2018-08-11T01:36:51.088Z,0.00
2018-08-11T01:37:50.991Z,0.00
2018-08-11T01:38:51.083Z,0.00
2018-08-11T01:39:50.970Z,0.00
2018-08-11T01:40:50.914Z,0.00
2018-08-11T01:41:50.938Z,0.00
2018-08-11T01:42:50.859Z,0.00
2018-08-11T01:43:50.826Z,0.00
2018-08-11T01:44:50.798Z,0.00
2018-08-11T01:45:50.770Z,0.00
2018-08-11T01:46:50.854Z,0.00
2018-08-11T01:47:50.736Z,0.00
2018-08-11T01:48:50.772Z,0.00
2018-08-11T01:49:50.644Z,0.00
2018-08-11T01:50:50.698Z,0.00
2018-08-11T01:51:50.638Z,0.00
2018-08-11T01:52:50.606Z,0.00
2018-08-11T01:53:50.590Z,0.00
2018-08-11T01:54:50.510Z,0.00
2018-08-11T01:55:50.484Z,0.00
2018-08-11T01:56:50.458Z,0.00
2018-08-11T01:57:50.443Z,0.00
2018-08-11T01:58:50.389Z,0.00
2018-08-11T01:59:50.371Z,0.00
2018-08-11T02:00:50.415Z,0.00
2018-08-11T02:01:50.319Z,0.00
2018-08-11T02:02:50.314Z,0.00
2018-08-11T02:03:50.269Z,0.00
2018-08-11T02:04:50.308Z,0.00
2018-08-11T02:05:50.200Z,0.00
2018-08-11T02:06:50.179Z,0.00
2018-08-11T02:07:50.148Z,0.00
2018-08-11T02:08:50.108Z,0.00
2018-08-11T02:09:50.088Z,0.00
2018-08-11T02:10:50.051Z,0.00
2018-08-11T02:11:50.047Z,0.00
2018-08-11T02:12:50.023Z,0.00
2018-08-11T02:13:49.997Z,0.00
2018-08-11T02:14:49.937Z,0.00
2018-08-11T02:15:49.921Z,0.00
2018-08-11T02:16:49.897Z,0.00
2018-08-11T02:17:49.858Z,0.00
2018-08-11T02:18:49.830Z,0.00
2018-08-11T02:19:49.807Z,0.00
2018-08-11T02:20:49.772Z,0.00
2018-08-11T02:21:49.737Z,0.00
2018-08-11T02:22:49.729Z,0.00
2018-08-11T02:23:49.826Z,0.00
2018-08-11T02:24:49.740Z,0.00
2018-08-11T02:25:49.626Z,0.00
2018-08-11T02:26:49.599Z,0.00
2018-08-11T02:27:49.579Z,0.00
2018-08-11T02:28:49.561Z,0.00
2018-08-11T02:29:49.515Z,0.00
2018-08-11T02:30:49.486Z,0.00
2018-08-11T02:31:49.457Z,0.00
2018-08-11T02:32:49.429Z,0.00
2018-08-11T02:33:49.408Z,0.00
2018-08-11T02:34:49.369Z,0.00
2018-08-11T02:35:49.362Z,0.00
2018-08-11T02:36:49.317Z,0.00
2018-08-11T02:37:49.283Z,0.00
2018-08-11T02:38:49.269Z,0.00
2018-08-11T02:39:49.239Z,0.00
2018-08-11T02:40:49.196Z,0.00
2018-08-11T02:41:49.180Z,0.00
2018-08-11T02:42:49.141Z,0.00
2018-08-11T02:43:49.110Z,0.00
2018-08-11T02:44:49.100Z,0.00
2018-08-11T02:45:49.071Z,0.00
2018-08-11T02:46:49.042Z,0.00
2018-08-11T02:47:49.012Z,0.00
2018-08-11T02:48:49.042Z,0.00
2018-08-11T02:49:48.954Z,0.00
2018-08-11T02:50:48.914Z,0.00
2018-08-11T02:51:48.897Z,0.00
2018-08-11T02:52:48.854Z,0.00
2018-08-11T02:53:48.895Z,0.00
2018-08-11T02:54:48.814Z,0.00
2018-08-11T02:55:48.772Z,0.00
2018-08-11T02:56:48.775Z,0.00
2018-08-11T02:57:48.728Z,0.00
2018-08-11T02:58:48.692Z,0.00
2018-08-11T02:59:48.670Z,0.00
2018-08-11T03:00:48.629Z,0.00
2018-08-11T03:01:48.604Z,0.00
2018-08-11T03:02:48.611Z,0.00
2018-08-11T03:03:48.549Z,0.00
2018-08-11T03:04:48.530Z,0.00
2018-08-11T03:05:48.490Z,0.00
2018-08-11T03:06:48.460Z,0.00
2018-08-11T03:07:48.522Z,0.00
2018-08-11T03:08:48.432Z,0.00
2018-08-11T03:09:48.394Z,0.00
2018-08-11T03:10:48.360Z,0.00
2018-08-11T03:11:48.324Z,0.00
2018-08-11T03:12:48.289Z,0.00
2018-08-11T03:13:48.317Z,0.00
2018-08-11T03:14:48.258Z,0.00
2018-08-11T03:15:48.208Z,0.00
2018-08-11T03:16:48.199Z,0.00
2018-08-11T03:18:10.757Z,0.00
2018-08-11T03:20:04.178Z,0.00
2018-08-11T03:21:04.053Z,0.00
2018-08-11T03:23:07.528Z,0.00
2018-08-11T03:24:07.425Z,0.00
2018-08-11T03:26:11.824Z,0.00
2018-08-11T03:27:11.717Z,0.00
2018-08-11T03:29:14.588Z,0.00
2018-08-11T03:30:14.547Z,0.00
2018-08-11T03:32:33.451Z,0.00
2018-08-11T03:33:52.979Z,0.00
2018-08-11T03:35:38.165Z,0.00
2018-08-11T03:36:38.157Z,0.00
2018-08-11T03:37:38.073Z,0.00
2018-08-11T03:38:38.119Z,0.00
2018-08-11T03:39:37.991Z,0.00
2018-08-11T03:40:37.944Z,4.00
2018-08-11T03:41:37.958Z,4.00
2018-08-11T03:42:37.880Z,0.00
2018-08-11T03:43:37.857Z,4.00
2018-08-11T03:44:37.838Z,4.00
2018-08-11T03:45:37.798Z,4.00
2018-08-11T03:46:37.771Z,4.00
2018-08-11T03:47:37.739Z,4.00
2018-08-11T03:48:37.714Z,8.00
2018-08-11T03:49:37.677Z,8.00
2018-08-11T03:50:37.652Z,12.00
2018-08-11T03:51:37.622Z,12.00
2018-08-11T03:52:37.662Z,12.00
2018-08-11T03:53:37.575Z,16.00
2018-08-11T03:54:40.190Z,16.00
2018-08-11T03:55:37.514Z,20.00
2018-08-11T03:56:37.482Z,24.00
2018-08-11T03:57:37.447Z,24.00
2018-08-11T03:58:37.424Z,24.00
2018-08-11T03:59:37.398Z,28.00
2018-08-11T04:00:37.373Z,36.00
2018-08-11T04:01:37.343Z,40.00
2018-08-11T04:02:37.319Z,44.00
2018-08-11T04:03:37.284Z,48.00
2018-08-11T04:04:39.196Z,56.00
2018-08-11T04:05:37.223Z,60.00
2018-08-11T04:06:37.260Z,68.00
2018-08-11T04:07:37.168Z,76.00
2018-08-11T04:08:37.135Z,84.00
2018-08-11T04:09:37.105Z,92.00
2018-08-11T04:10:37.077Z,96.00
2018-08-11T04:11:37.056Z,100.00
2018-08-11T04:12:37.022Z,96.00
2018-08-11T04:13:37.000Z,108.00
2018-08-11T04:14:36.970Z,116.00
2018-08-11T04:15:36.939Z,128.00
2018-08-11T04:16:36.905Z,144.00
2018-08-11T04:17:36.890Z,176.00
2018-08-11T04:18:36.856Z,192.00
2018-08-11T04:19:36.858Z,196.00
2018-08-11T04:20:36.788Z,208.00
2018-08-11T04:21:36.768Z,232.00
2018-08-11T04:22:36.744Z,264.00
2018-08-11T04:23:36.705Z,292.00
2018-08-11T04:24:36.704Z,328.00
2018-08-11T04:25:36.650Z,360.00
2018-08-11T04:26:36.624Z,388.00
2018-08-11T04:27:36.700Z,420.00
2018-08-11T04:28:36.563Z,444.00
2018-08-11T04:29:36.534Z,476.00
2018-08-11T04:30:36.536Z,500.00
2018-08-11T04:31:36.477Z,528.00
2018-08-11T04:32:36.451Z,544.00
2018-08-11T04:33:36.421Z,548.00
2018-08-11T04:34:36.391Z,560.00
2018-08-11T04:35:36.383Z,556.00
2018-08-11T04:36:36.397Z,564.00
2018-08-11T04:37:36.307Z,580.00
2018-08-11T04:38:36.292Z,580.00
2018-08-11T04:39:36.296Z,588.00
2018-08-11T04:40:36.223Z,584.00
2018-08-11T04:41:36.197Z,584.00
2018-08-11T04:42:36.214Z,584.00
2018-08-11T04:43:36.139Z,584.00
2018-08-11T04:44:36.123Z,580.00
2018-08-11T04:45:36.132Z,580.00
2018-08-11T04:46:36.055Z,628.00
2018-08-11T04:47:36.028Z,704.00
2018-08-11T04:48:35.985Z,740.00
2018-08-11T04:49:35.968Z,840.00
2018-08-11T04:50:35.990Z,884.00
2018-08-11T04:51:35.907Z,944.00
2018-08-11T04:52:35.880Z,1012.00
2018-08-11T04:53:35.853Z,1028.00
2018-08-11T04:54:35.881Z,1052.00
2018-08-11T04:55:35.797Z,1060.00
2018-08-11T04:56:35.766Z,1152.00
2018-08-11T04:57:35.735Z,1172.00
2018-08-11T04:58:35.704Z,1196.00
2018-08-11T04:59:35.687Z,1212.00
2018-08-11T05:00:35.669Z,1236.00
2018-08-11T05:01:37.208Z,1252.00
2018-08-11T05:02:35.600Z,1284.00
2018-08-11T05:03:35.582Z,1352.00
2018-08-11T05:04:35.533Z,1356.00
2018-08-11T05:05:35.527Z,1380.00
2018-08-11T05:06:35.525Z,1352.00
2018-08-11T05:07:35.452Z,1412.00
2018-08-11T05:08:37.262Z,1408.00
2018-08-11T05:09:35.418Z,1440.00
2018-08-11T05:10:35.372Z,1468.00
2018-08-11T05:11:35.335Z,1500.00
2018-08-11T05:12:35.330Z,1500.00
2018-08-11T05:13:35.282Z,1520.00
2018-08-11T05:14:35.249Z,1484.00
2018-08-11T05:15:35.300Z,1516.00
2018-08-11T05:16:35.190Z,1492.00
2018-08-11T05:17:35.157Z,1456.00
2018-08-11T05:18:35.133Z,1412.00
2018-08-11T05:19:35.153Z,1372.00
2018-08-11T05:20:35.144Z,1372.00
2018-08-11T05:21:35.050Z,1340.00
2018-08-11T05:22:35.027Z,1404.00
2018-08-11T05:23:35.003Z,1492.00
2018-08-11T05:24:34.973Z,1424.00
2018-08-11T05:25:34.946Z,1492.00
2018-08-11T05:26:34.912Z,1624.00
2018-08-11T05:27:34.953Z,1572.00
2018-08-11T05:28:34.844Z,1596.00
2018-08-11T05:29:34.829Z,1608.00
2018-08-11T05:30:34.791Z,1644.00
2018-08-11T05:31:34.771Z,1748.00
2018-08-11T05:32:34.738Z,1932.00
2018-08-11T05:33:34.728Z,1640.00
2018-08-11T05:34:34.682Z,1620.00
2018-08-11T05:35:34.651Z,1868.00
2018-08-11T05:36:34.627Z,1808.00
2018-08-11T05:37:34.663Z,1792.00
2018-08-11T05:38:34.577Z,2016.00
2018-08-11T05:39:34.539Z,1864.00
2018-08-11T05:40:34.508Z,2008.00
2018-08-11T05:41:34.527Z,1992.00
2018-08-11T05:42:34.459Z,2068.00
2018-08-11T05:43:34.431Z,1924.00
2018-08-11T05:44:34.400Z,2088.00
2018-08-11T05:45:34.377Z,2016.00
2018-08-11T05:46:34.340Z,2168.00
2018-08-11T05:47:34.311Z,2132.00
2018-08-11T05:48:34.285Z,2144.00
2018-08-11T05:49:34.251Z,2088.00
2018-08-11T05:50:34.240Z,2256.00
2018-08-11T05:51:34.200Z,2488.00
2018-08-11T05:52:34.176Z,2264.00
2018-08-11T05:53:34.137Z,2136.00
2018-08-11T05:54:34.112Z,2288.00
2018-08-11T05:55:34.089Z,2664.00
2018-08-11T05:56:34.098Z,2580.00
2018-08-11T05:57:34.029Z,2208.00
2018-08-11T05:58:34.004Z,2384.00
2018-08-11T05:59:33.980Z,2628.00
2018-08-11T06:00:33.940Z,2256.00
2018-08-11T06:01:33.914Z,2404.00
2018-08-11T06:02:33.899Z,2728.00
2018-08-11T06:03:33.862Z,2456.00
2018-08-11T06:04:33.833Z,2584.00
2018-08-11T06:05:33.819Z,2660.00
2018-08-11T06:06:33.783Z,3072.00
2018-08-11T06:07:33.749Z,2508.00
2018-08-11T06:08:33.723Z,2588.00
2018-08-11T06:09:33.702Z,2420.00
2018-08-11T06:10:33.682Z,2420.00
2018-08-11T06:11:33.634Z,2624.00
2018-08-11T06:12:33.601Z,2812.00
2018-08-11T06:13:33.581Z,3368.00
2018-08-11T06:14:33.551Z,3364.00
2018-08-11T06:15:33.524Z,2668.00
2018-08-11T06:16:36.220Z,2564.00
2018-08-11T06:17:33.477Z,2976.00
2018-08-11T06:18:33.441Z,2796.00
2018-08-11T06:19:33.434Z,3100.00
2018-08-11T06:20:33.376Z,3180.00
2018-08-11T06:21:33.387Z,2960.00
2018-08-11T06:22:33.341Z,2940.00
2018-08-11T06:23:33.306Z,3228.00
2018-08-11T06:24:33.276Z,3284.00
2018-08-11T06:25:33.317Z,2820.00
2018-08-11T06:26:33.219Z,3012.00
2018-08-11T06:27:33.198Z,3252.00
2018-08-11T06:28:33.173Z,3500.00
2018-08-11T06:29:33.136Z,3924.00
2018-08-11T06:30:34.730Z,3288.00
2018-08-11T06:31:33.246Z,3056.00
2018-08-11T06:32:33.134Z,2928.00
2018-08-11T06:33:33.066Z,2784.00
2018-08-11T06:34:33.052Z,2416.00
2018-08-11T06:35:33.027Z,2988.00
2018-08-11T06:36:33.023Z,2972.00
2018-08-11T06:37:32.984Z,2876.00
2018-08-11T06:38:32.943Z,2884.00
2018-08-11T06:39:32.916Z,2828.00
2018-08-11T06:40:32.953Z,2804.00
2018-08-11T06:41:32.886Z,2880.00
2018-08-11T06:42:32.832Z,2376.00
2018-08-11T06:43:32.797Z,2876.00
2018-08-11T06:44:32.752Z,2888.00
2018-08-11T06:45:32.688Z,2912.00
2018-08-11T06:46:32.660Z,2876.00
2018-08-11T06:47:32.628Z,2920.00
2018-08-11T06:48:32.623Z,3056.00
2018-08-11T06:49:32.594Z,3128.00
2018-08-11T06:50:32.557Z,2912.00
2018-08-11T06:51:32.613Z,2568.00
2018-08-11T06:52:32.484Z,2932.00
2018-08-11T06:53:32.461Z,2756.00
2018-08-11T06:54:32.427Z,2932.00
2018-08-11T06:55:32.461Z,2960.00
2018-08-11T06:56:32.379Z,2980.00
2018-08-11T06:57:32.414Z,3052.00
2018-08-11T06:58:32.344Z,3076.00
2018-08-11T06:59:32.292Z,2700.00
2018-08-11T07:00:32.267Z,2564.00
2018-08-11T07:01:32.239Z,3120.00
2018-08-11T07:02:32.258Z,3100.00
2018-08-11T07:03:32.178Z,2432.00
2018-08-11T07:04:32.240Z,2436.00
2018-08-11T07:05:32.124Z,2844.00
2018-08-11T07:06:32.156Z,3100.00
2018-08-11T07:07:33.735Z,3180.00
2018-08-11T07:08:33.889Z,3240.00
2018-08-11T07:09:32.020Z,2512.00
2018-08-11T07:10:31.990Z,3312.00
2018-08-11T07:11:32.075Z,3220.00
2018-08-11T07:12:31.936Z,3216.00
2018-08-11T07:13:33.192Z,3200.00
2018-08-11T07:14:31.955Z,3520.00
2018-08-11T07:15:31.881Z,3436.00
2018-08-11T07:16:31.849Z,3480.00
2018-08-11T07:17:31.923Z,3404.00
2018-08-11T07:18:31.759Z,3420.00
2018-08-11T07:19:31.741Z,3292.00
2018-08-11T07:20:32.893Z,3196.00
2018-08-11T07:21:31.692Z,2852.00
2018-08-11T07:22:31.655Z,2652.00
2018-08-11T07:23:31.630Z,3432.00
2018-08-11T07:24:31.594Z,3688.00
2018-08-11T07:25:31.595Z,4288.00
2018-08-11T07:26:31.623Z,3584.00
2018-08-11T07:27:31.530Z,3116.00
2018-08-11T07:28:31.490Z,3204.00
2018-08-11T07:29:31.491Z,3156.00
2018-08-11T07:30:33.242Z,3164.00
2018-08-11T07:31:31.411Z,2880.00
2018-08-11T07:32:31.413Z,3508.00
2018-08-11T07:33:31.358Z,3388.00
2018-08-11T07:34:32.627Z,3232.00
2018-08-11T07:35:31.597Z,3416.00
2018-08-11T07:36:31.455Z,3444.00
2018-08-11T07:37:31.241Z,3524.00
2018-08-11T07:38:31.492Z,3620.00
2018-08-11T07:39:31.195Z,3416.00
2018-08-11T07:40:49.833Z,3360.00
2018-08-11T07:42:49.876Z,3332.00
2018-08-11T07:43:47.928Z,3432.00
2018-08-11T07:44:49.310Z,3656.00
2018-08-11T07:45:47.535Z,3668.00
2018-08-11T07:46:49.425Z,4064.00
2018-08-11T07:47:47.221Z,3732.00
2018-08-11T07:48:47.179Z,3632.00
2018-08-11T07:49:46.877Z,3964.00
2018-08-11T07:50:46.853Z,3648.00
2018-08-11T07:51:46.761Z,3604.00
2018-08-11T07:52:48.149Z,3732.00
2018-08-11T07:53:46.903Z,3436.00
2018-08-11T07:54:47.286Z,3616.00
2018-08-11T07:55:46.814Z,3748.00
2018-08-11T07:56:46.627Z,3832.00
2018-08-11T07:57:46.643Z,3372.00
2018-08-11T07:58:46.679Z,4564.00
2018-08-11T07:59:46.556Z,5256.00
2018-08-11T08:00:46.548Z,5160.00
2018-08-11T08:01:46.542Z,4424.00
2018-08-11T08:02:46.567Z,3532.00
2018-08-11T08:03:46.436Z,3632.00
2018-08-11T08:04:46.455Z,4004.00
2018-08-11T08:05:46.459Z,3484.00
2018-08-11T08:06:46.371Z,4356.00
2018-08-11T08:07:46.435Z,4024.00
2018-08-11T08:08:46.309Z,4492.00
2018-08-11T08:09:46.374Z,4908.00
2018-08-11T08:10:46.246Z,4768.00
2018-08-11T08:11:46.262Z,4104.00
2018-08-11T08:12:46.200Z,4056.00
2018-08-11T08:13:46.350Z,4496.00
2018-08-11T08:14:46.141Z,3500.00
2018-08-11T08:15:46.124Z,3944.00
2018-08-11T08:16:46.103Z,4532.00
2018-08-11T08:17:46.146Z,4644.00
2018-08-11T08:18:46.039Z,4408.00
2018-08-11T08:19:46.105Z,4280.00
2018-08-11T08:20:46.009Z,4732.00
2018-08-11T08:21:45.959Z,4668.00
2018-08-11T08:22:45.940Z,4432.00
2018-08-11T08:23:45.962Z,3716.00
2018-08-11T08:24:45.883Z,4852.00
2018-08-11T08:25:45.847Z,5272.00
2018-08-11T08:26:45.825Z,6340.00
2018-08-11T08:27:45.823Z,6340.00
2018-08-11T08:28:45.910Z,6056.00
2018-08-11T08:29:45.828Z,6152.00
2018-08-11T08:30:45.927Z,5940.00
2018-08-11T08:31:45.743Z,6060.00
2018-08-11T08:32:45.679Z,5844.00
2018-08-11T08:33:45.748Z,5228.00
2018-08-11T08:34:45.908Z,5536.00
2018-08-11T08:35:45.576Z,5348.00
2018-08-11T08:36:45.549Z,4960.00
2018-08-11T08:37:45.535Z,4940.00
2018-08-11T08:38:45.516Z,5824.00
2018-08-11T08:39:45.478Z,6192.00
2018-08-11T08:40:45.461Z,5148.00
2018-08-11T08:41:45.482Z,5208.00
2018-08-11T08:42:45.389Z,6192.00
2018-08-11T08:43:45.389Z,5912.00
2018-08-11T08:44:45.342Z,4844.00
2018-08-11T08:45:45.327Z,4716.00
2018-08-11T08:46:45.295Z,4764.00
2018-08-11T08:47:45.261Z,4568.00
2018-08-11T08:48:45.235Z,5632.00
2018-08-11T08:49:45.245Z,4496.00
2018-08-11T08:50:45.235Z,4508.00
2018-08-11T08:51:45.177Z,6020.00
2018-08-11T08:52:45.139Z,6184.00
2018-08-11T08:53:45.200Z,6516.00
2018-08-11T08:54:45.078Z,7324.00
2018-08-11T08:55:45.128Z,8004.00
2018-08-11T08:56:45.036Z,7984.00
2018-08-11T08:57:45.004Z,7868.00
2018-08-11T08:58:44.984Z,8388.00
2018-08-11T08:59:46.573Z,7636.00
2018-08-11T09:00:44.924Z,8260.00
2018-08-11T09:01:44.898Z,7752.00
2018-08-11T09:02:44.874Z,8004.00
2018-08-11T09:03:45.025Z,6876.00
2018-08-11T09:04:44.946Z,6420.00
2018-08-11T09:05:45.007Z,6188.00
2018-08-11T09:06:44.850Z,5880.00
2018-08-11T09:07:44.767Z,6504.00
2018-08-11T09:08:44.756Z,5904.00
2018-08-11T09:09:44.704Z,7504.00
2018-08-11T09:10:44.670Z,5624.00
2018-08-11T09:13:50.429Z,5852.00
2018-08-11T09:17:49.450Z,6388.00
2018-08-11T09:18:51.246Z,6456.00
2018-08-11T09:19:50.974Z,7608.00
2018-08-11T09:20:49.776Z,9376.00
2018-08-11T09:21:49.059Z,7548.00
2018-08-11T09:22:49.742Z,6956.00
2018-08-11T09:23:54.599Z,8644.00
2018-08-11T09:24:50.220Z,7960.00
2018-08-11T09:29:11.460Z,5668.00
2018-08-11T09:30:12.621Z,5968.00
2018-08-11T09:32:14.897Z,7900.00
2018-08-11T09:33:17.250Z,7828.00
2018-08-11T09:35:19.806Z,5596.00
2018-08-11T09:36:20.901Z,5364.00
2018-08-11T09:38:25.033Z,7940.00
2018-08-11T09:39:25.149Z,5996.00
2018-08-11T09:41:29.983Z,7768.00
2018-08-11T09:42:28.214Z,7480.00
2018-08-11T09:44:36.208Z,7412.00
2018-08-11T09:45:36.253Z,4868.00
2018-08-11T09:47:44.491Z,4308.00
2018-08-11T09:50:05.508Z,4168.00
2018-08-11T09:51:07.439Z,4288.00
2018-08-11T09:53:23.964Z,5072.00
2018-08-11T09:54:13.416Z,6920.00
2018-08-11T09:56:21.019Z,7744.00
2018-08-11T09:57:21.679Z,5348.00
2018-08-11T10:01:03.047Z,5548.00
2018-08-11T10:03:54.178Z,8312.00
2018-08-11T10:06:28.884Z,9448.00
2018-08-11T10:07:28.959Z,9180.00
2018-08-11T10:09:36.603Z,6876.00
2018-08-11T10:10:37.201Z,8948.00
2018-08-11T10:14:43.493Z,5712.00
2018-08-11T10:17:07.130Z,7084.00
2018-08-11T10:18:07.465Z,5660.00
2018-08-11T10:20:49.008Z,8404.00
2018-08-11T10:21:49.773Z,8436.00
2018-08-11T10:31:22.608Z,9068.00
2018-08-11T10:32:20.235Z,9124.00
2018-08-11T10:33:20.646Z,9180.00
2018-08-11T10:34:21.767Z,8456.00
2018-08-11T10:35:21.269Z,7856.00
2018-08-11T10:36:20.393Z,9456.00
2018-08-11T10:37:19.984Z,7956.00
2018-08-11T10:45:08.155Z,5568.00
2018-08-11T10:46:09.935Z,5792.00
2018-08-11T10:48:08.580Z,6388.00
2018-08-11T10:49:09.019Z,7044.00
2018-08-11T10:51:13.646Z,7348.00
2018-08-11T10:56:10.925Z,6848.00
2018-08-11T10:57:10.936Z,7236.00
2018-08-11T10:59:16.109Z,9068.00
2018-08-11T11:00:14.105Z,9084.00
2018-08-11T11:01:14.130Z,8656.00
2018-08-11T11:02:20.077Z,7764.00
2018-08-11T11:03:16.201Z,5212.00
2018-08-11T11:09:22.352Z,6996.00
2018-08-11T11:10:23.067Z,7444.00
2018-08-11T11:12:29.565Z,8716.00
2018-08-11T11:13:28.012Z,8628.00
2018-08-11T11:17:07.010Z,9004.00
2018-08-11T11:18:06.103Z,8808.00
2018-08-11T11:19:05.891Z,8600.00
2018-08-11T11:24:00.652Z,8884.00
2018-08-11T11:24:41.731Z,9384.00
2018-08-11T11:25:42.097Z,9772.00
2018-08-11T11:26:41.346Z,9808.00
2018-08-11T11:27:41.446Z,9668.00
2018-08-11T11:30:24.416Z,8420.00
2018-08-11T11:31:24.945Z,8116.00
2018-08-11T11:33:26.048Z,8320.00
2018-08-11T11:34:27.001Z,6672.00
2018-08-11T11:36:30.113Z,5860.00
2018-08-11T11:37:28.460Z,6348.00
2018-08-11T11:44:11.925Z,9048.00
2018-08-11T12:27:00.628Z,7632.00
2018-08-11T14:43:51.820Z,10168.00
2018-08-11T14:50:03.633Z,31360.00
2018-08-11T14:51:03.742Z,31616.00
2018-08-11T14:52:28.478Z,13004.00
2018-08-11T14:53:05.011Z,11624.00
2018-08-11T14:56:02.836Z,8996.00
2018-08-11T14:57:02.601Z,8848.00
2018-08-11T14:59:03.973Z,8376.00
2018-08-11T15:01:05.522Z,8988.00
2018-08-11T15:02:19.024Z,10528.00
2018-08-11T15:04:18.158Z,23168.00
2018-08-11T15:05:17.167Z,33728.00
2018-08-11T15:06:18.940Z,33600.00
2018-08-11T15:07:17.456Z,34944.00
2018-08-11T15:10:27.159Z,33664.00
2018-08-11T15:11:04.670Z,26816.00
2018-08-11T15:12:04.337Z,10524.00
2018-08-11T15:13:04.204Z,9304.00
2018-08-11T15:14:03.748Z,9200.00
2018-08-11T15:18:44.216Z,10076.00
2018-08-11T15:21:17.089Z,11544.00
2018-08-11T15:22:17.359Z,44224.00
2018-08-11T15:23:16.977Z,46208.00
2018-08-11T15:24:17.436Z,46272.00
2018-08-11T15:25:17.958Z,47232.00
2018-08-11T15:26:18.066Z,43328.00
2018-08-11T15:27:36.555Z,46848.00
2018-08-11T15:28:17.632Z,48416.00
2018-08-11T15:29:17.477Z,51680.00
2018-08-11T15:32:14.274Z,53344.00
2018-08-11T15:33:10.784Z,53696.00
2018-08-11T15:34:10.582Z,56064.00
2018-08-11T15:37:06.702Z,54528.00
2018-08-11T15:37:53.937Z,57760.00
2018-08-11T15:38:58.728Z,56096.00
2018-08-11T15:39:53.208Z,55648.00
2018-08-11T15:40:52.757Z,57696.00
2018-08-11T15:41:52.750Z,59328.00
2018-08-11T15:42:52.888Z,12356.00
2018-08-11T15:43:53.337Z,14500.00
2018-08-11T15:44:52.642Z,58848.00
2018-08-11T15:45:52.791Z,63232.00
2018-08-11T15:46:52.767Z,62752.00
2018-08-11T15:51:24.376Z,58048.00
2018-08-11T15:52:43.411Z,67648.00
2018-08-11T15:54:24.735Z,70880.00
2018-08-11T15:55:25.677Z,71264.00
2018-08-11T15:56:24.386Z,70848.00
2018-08-11T15:57:23.747Z,69440.00
2018-08-11T15:58:38.719Z,70080.00
2018-08-11T16:04:34.387Z,17632.00
2018-08-11T16:05:49.510Z,32832.00
2018-08-11T16:07:57.026Z,55744.00
2018-08-11T16:09:14.790Z,24000.00
2018-08-11T16:11:26.964Z,25984.00
2018-08-11T16:12:38.182Z,38528.00
2018-08-11T16:13:31.544Z,35296.00
2018-08-11T16:14:25.211Z,24128.00
2018-08-11T16:15:44.817Z,12380.00
2018-08-11T16:18:17.497Z,12192.00
2018-08-11T16:19:11.616Z,10972.00
2018-08-11T16:21:52.835Z,10836.00
2018-08-11T16:23:11.480Z,10216.00
2018-08-11T16:25:00.530Z,9144.00
2018-08-11T16:26:17.320Z,8768.00
2018-08-11T16:27:54.600Z,8776.00
2018-08-11T16:28:54.048Z,8796.00
2018-08-11T16:33:01.392Z,9828.00
2018-08-11T16:33:40.576Z,10072.00
2018-08-11T16:35:58.269Z,10412.00
2018-08-11T16:37:09.269Z,10108.00
2018-08-11T16:39:06.302Z,9976.00
2018-08-11T16:39:52.669Z,10064.00
2018-08-11T16:42:05.429Z,10248.00
2018-08-11T16:42:55.512Z,10440.00
2018-08-11T16:43:54.585Z,10732.00
2018-08-11T16:44:54.108Z,10664.00
2018-08-11T16:45:54.065Z,10500.00
2018-08-11T16:46:53.712Z,9832.00
2018-08-11T16:49:43.247Z,9480.00
2018-08-11T16:50:38.569Z,9004.00
2018-08-11T16:51:38.808Z,8552.00
2018-08-11T16:54:12.237Z,8868.00
2018-08-11T16:55:22.440Z,8872.00
2018-08-11T16:57:29.476Z,8356.00
2018-08-11T16:58:38.695Z,8068.00
2018-08-11T17:00:27.019Z,7556.00
2018-08-11T17:01:26.335Z,7388.00
2018-08-11T17:04:34.888Z,6496.00
2018-08-11T17:07:06.373Z,6744.00
2018-08-11T17:10:54.205Z,6448.00
2018-08-11T17:12:50.861Z,6924.00
2018-08-11T17:17:12.505Z,7820.00
2018-08-11T17:18:13.244Z,7540.00
2018-08-11T17:20:10.705Z,6572.00
2018-08-11T17:21:10.631Z,6448.00
2018-08-11T17:23:16.952Z,6160.00
2018-08-11T17:24:17.412Z,6180.00
2018-08-11T17:25:18.512Z,6184.00
2018-08-11T17:26:16.502Z,6264.00
2018-08-11T17:27:17.161Z,6084.00
2018-08-11T17:28:17.013Z,5784.00
2018-08-11T17:29:16.048Z,5700.00
2018-08-11T17:30:15.989Z,5604.00
2018-08-11T17:31:15.983Z,5552.00
2018-08-11T17:32:15.986Z,5464.00
2018-08-11T17:33:16.180Z,5224.00
2018-08-11T17:34:15.888Z,5176.00
2018-08-11T17:35:15.938Z,5228.00
2018-08-11T17:36:15.689Z,5212.00
2018-08-11T17:38:54.221Z,6276.00
2018-08-11T17:39:56.761Z,5236.00
2018-08-11T17:40:55.681Z,5252.00
2018-08-11T17:41:54.031Z,5324.00
2018-08-11T17:42:53.882Z,5100.00
2018-08-11T17:43:53.803Z,5008.00
2018-08-11T17:45:10.899Z,4984.00
2018-08-11T17:46:55.537Z,4792.00
2018-08-11T17:47:55.335Z,4584.00
2018-08-11T17:49:56.358Z,4304.00
2018-08-11T17:51:15.190Z,4180.00
2018-08-11T17:53:01.687Z,4248.00
2018-08-11T17:54:01.753Z,4180.00
2018-08-11T17:55:01.492Z,4012.00
2018-08-11T17:56:02.461Z,3948.00
2018-08-11T17:58:44.654Z,3856.00
2018-08-11T17:59:45.182Z,3796.00